sensor_id;sensor_type;location;lat;lon;timestamp;pressure;altitude;pressure_sealevel;temperature;humidity
61740;BME280;47645;45.288;12.038;2023-05-11T00:02:29;1009.4073394354238;;;12.1548828125;100
61740;BME280;47645;45.288;12.038;2023-05-11T00:12:30;1009.2865822645618;;;12.419921875;100
61740;BME280;47645;45.288;12.038;2023-05-11T00:22:31;1009.1743361757846;;;12.2822265625;100
61740;BME280;47645;45.288;12.038;2023-05-11T00:32:32;1009.0302199656638;;;12.12421875;100
61740;BME280;47645;45.288;12.038;2023-05-11T00:42:33;1009.0475621667276;;;12.24140625;100
61740;BME280;47645;45.288;12.038;2023-05-11T00:52:33;1008.9541333237574;;;12.312890625;100
61740;BME280;47645;45.288;12.038;2023-05-11T01:02:35;1008.8798091885043;;;12.31796875;100
61740;BME280;47645;45.288;12.038;2023-05-11T01:12:45;1008.8865081244127;;;12.1751953125;100
61740;BME280;47645;45.288;12.038;2023-05-11T01:22:47;1008.9127817968396;;;12.1802734375;100
61740;BME280;47645;45.288;12.038;2023-05-11T01:32:39;1008.9038195176036;;;12.2109375;100
61740;BME280;47645;45.288;12.038;2023-05-11T01:42:43;1008.9304638408423;;;12.246484375;100
61740;BME280;47645;45.288;12.038;2023-05-11T01:52:40;1008.8606883070078;;;12.09375;100
61740;BME280;47645;45.288;12.038;2023-05-11T02:02:40;1008.9240827093463;;;12.0478515625;100
61740;BME280;47645;45.288;12.038;2023-05-11T02:12:40;1008.8254705610176;;;12.1904296875;100
61740;BME280;47645;45.288;12.038;2023-05-11T02:22:42;1008.9175842357789;;;12.108984375;100
61740;BME280;47645;45.288;12.038;2023-05-11T02:32:47;1008.8765258167882;;;12.0375;100
61740;BME280;47645;45.288;12.038;2023-05-11T02:42:44;1008.7365437873688;;;12.0681640625;100
61740;BME280;47645;45.288;12.038;2023-05-11T02:52:46;1008.7376243022234;;;12.1751953125;100
61740;BME280;47645;45.288;12.038;2023-05-11T03:02:44;1008.6891640498474;;;12.129296875;100
61740;BME280;47645;45.288;12.038;2023-05-11T03:12:46;1008.6288749669156;;;12.119140625;100
61740;BME280;47645;45.288;12.038;2023-05-11T03:22:46;1008.5808979811213;;;12.1599609375;100
61740;BME280;47645;45.288;12.038;2023-05-11T03:32:47;1008.5219026573119;;;12.2873046875;100
61740;BME280;47645;45.288;12.038;2023-05-11T03:42:48;1008.5252897904039;;;12.216015625;100
61740;BME280;47645;45.288;12.038;2023-05-11T03:52:49;1008.4560013661242;;;12.246484375;100
61740;BME280;47645;45.288;12.038;2023-05-11T04:02:51;1008.4377060791786;;;12.22109375;100
61740;BME280;47645;45.288;12.038;2023-05-11T04:12:50;1008.4369825181292;;;12.0478515625;100
61740;BME280;47645;45.288;12.038;2023-05-11T04:22:51;1008.510692116137;;;12.10390625;100
61740;BME280;47645;45.288;12.038;2023-05-11T04:32:52;1008.512574572616;;;11.9662109375;100
61740;BME280;47645;45.288;12.038;2023-05-11T04:42:53;1008.5172670328155;;;12.0375;100
61740;BME280;47645;45.288;12.038;2023-05-11T04:52:53;1008.6010509010353;;;12.032421875;100
61740;BME280;47645;45.288;12.038;2023-05-11T05:02:54;1008.6754118707355;;;12.0478515625;100
61740;BME280;47645;45.288;12.038;2023-05-11T05:12:55;1008.7076029116179;;;11.8796875;100
61740;BME280;47645;45.288;12.038;2023-05-11T05:22:58;1008.696998118277;;;11.8388671875;100
61740;BME280;47645;45.288;12.038;2023-05-11T05:32:57;1008.6907751373853;;;11.925390625;100
61740;BME280;47645;45.288;12.038;2023-05-11T05:42:58;1008.6162263135573;;;11.915234375;100
61740;BME280;47645;45.288;12.038;2023-05-11T05:52:58;1008.6526810450144;;;12.2515625;100
61740;BME280;47645;45.288;12.038;2023-05-11T06:03:00;1008.7488832269538;;;12.0171875;100
61740;BME280;47645;45.288;12.038;2023-05-11T06:13:00;1008.8542880839179;;;11.9611328125;100
61740;BME280;47645;45.288;12.038;2023-05-11T06:23:01;1008.8053860898601;;;12.0884765625;100
61740;BME280;47645;45.288;12.038;2023-05-11T06:33:02;1008.6734515600012;;;12.3740234375;100
61740;BME280;47645;45.288;12.038;2023-05-11T06:43:03;1008.7138612055297;;;12.2974609375;100
61740;BME280;47645;45.288;12.038;2023-05-11T06:53:04;1008.725724505021;;;12.33828125;100
61740;BME280;47645;45.288;12.038;2023-05-11T07:03:05;1008.7350836131259;;;12.557421875;100
61740;BME280;47645;45.288;12.038;2023-05-11T07:13:06;1008.714466534089;;;12.343359375;100
61740;BME280;47645;45.288;12.038;2023-05-11T07:23:06;1008.7639353304979;;;12.6134765625;100
61740;BME280;47645;45.288;12.038;2023-05-11T07:33:07;1008.7935208216388;;;12.450390625;100
61740;BME280;47645;45.288;12.038;2023-05-11T07:43:08;1008.8001188649795;;;12.53203125;100
61740;BME280;47645;45.288;12.038;2023-05-11T07:53:09;1008.7807614809535;;;12.4810546875;100
61740;BME280;47645;45.288;12.038;2023-05-11T08:03:10;1008.7614668387677;;;12.430078125;100
61740;BME280;47645;45.288;12.038;2023-05-11T08:13:11;1008.7882637929267;;;12.465625;100
61740;BME280;47645;45.288;12.038;2023-05-11T08:23:17;1008.8588350081307;;;12.6236328125;100
61740;BME280;47645;45.288;12.038;2023-05-11T08:33:13;1008.9419029879864;;;12.5982421875;100
61740;BME280;47645;45.288;12.038;2023-05-11T08:43:14;1008.9471611048772;;;12.5830078125;100
61740;BME280;47645;45.288;12.038;2023-05-11T08:53:15;1008.9654041251737;;;12.781640625;100
61740;BME280;47645;45.288;12.038;2023-05-11T09:03:17;1008.9520958316227;;;12.7154296875;100
61740;BME280;47645;45.288;12.038;2023-05-11T09:13:20;1009.005916605315;;;12.537109375;100
61740;BME280;47645;45.288;12.038;2023-05-11T09:23:23;1009.0127432670796;;;12.547265625;100
61740;BME280;47645;45.288;12.038;2023-05-11T09:33:23;1008.9427167520803;;;12.6033203125;100
61740;BME280;47645;45.288;12.038;2023-05-11T09:43:22;1008.989037075667;;;12.460546875;100
61740;BME280;47645;45.288;12.038;2023-05-11T09:53:33;1008.9441517373157;;;12.5779296875;100
61740;BME280;47645;45.288;12.038;2023-05-11T10:03:22;1009.0621153477427;;;12.440234375;100
61740;BME280;47645;45.288;12.038;2023-05-11T10:13:23;1009.0925389813242;;;12.5166015625;100
61740;BME280;47645;45.288;12.038;2023-05-11T10:23:24;1009.0310362253665;;;12.5779296875;100
61740;BME280;47645;45.288;12.038;2023-05-11T10:33:25;1008.9954728339616;;;12.567578125;100
61740;BME280;47645;45.288;12.038;2023-05-11T10:43:42;1009.0968898205404;;;12.5880859375;100
61740;BME280;47645;45.288;12.038;2023-05-11T10:53:39;1009.0496457864357;;;12.6390625;100
61740;BME280;47645;45.288;12.038;2023-05-11T11:03:27;1008.9523437394314;;;12.7359375;100
61740;BME280;47645;45.288;12.038;2023-05-11T11:13:55;1008.860461241808;;;12.853125;100
61740;BME280;47645;45.288;12.038;2023-05-11T11:23:47;1008.8889536012194;;;13.1384765625;100
61740;BME280;47645;45.288;12.038;2023-05-11T11:33:31;1008.7975519969752;;;13.2556640625;100
61740;BME280;47645;45.288;12.038;2023-05-11T11:43:43;1008.7525785418086;;;13.1587890625;100
61740;BME280;47645;45.288;12.038;2023-05-11T12:03:34;1008.8727483050773;;;13.403515625;100
61740;BME280;47645;45.288;12.038;2023-05-11T12:13:34;1008.9456317765369;;;12.995703125;100
61740;BME280;47645;45.288;12.038;2023-05-11T12:23:35;1008.8595074426019;;;13.2046875;100
61740;BME280;47645;45.288;12.038;2023-05-11T12:33:45;1008.8831979231196;;;13.3015625;100
61740;BME280;47645;45.288;12.038;2023-05-11T12:43:38;1008.8660779685956;;;13.3677734375;100
61740;BME280;47645;45.288;12.038;2023-05-11T12:53:40;1008.8892325270582;;;13.0466796875;100
61740;BME280;47645;45.288;12.038;2023-05-11T13:03:38;1009.0678964378588;;;12.965234375;100
61740;BME280;47645;45.288;12.038;2023-05-11T13:13:39;1008.9614166508557;;;13.0060546875;100
61740;BME280;47645;45.288;12.038;2023-05-11T13:23:40;1008.9458407202254;;;13.102734375;100
61740;BME280;47645;45.288;12.038;2023-05-11T13:33:42;1009.0009644522926;;;13.0671875;100
61740;BME280;47645;45.288;12.038;2023-05-11T13:43:42;1008.8171749263078;;;13.209765625;100
61740;BME280;47645;45.288;12.038;2023-05-11T13:53:43;1008.908250123247;;;13.1384765625;100
61740;BME280;47645;45.288;12.038;2023-05-11T14:03:44;1008.9015686342458;;;13.0162109375;100
61740;BME280;47645;45.288;12.038;2023-05-11T14:13:46;1008.9022182815005;;;13.1080078125;100
61740;BME280;47645;45.288;12.038;2023-05-11T14:23:46;1008.8461588283571;;;12.7205078125;100
61740;BME280;47645;45.288;12.038;2023-05-11T14:33:47;1008.8055741633513;;;12.741015625;100
61740;BME280;47645;45.288;12.038;2023-05-11T14:43:49;1008.7187112873033;;;12.8224609375;100
61740;BME280;47645;45.288;12.038;2023-05-11T14:53:48;1008.800791337328;;;12.66953125;100
61740;BME280;47645;45.288;12.038;2023-05-11T15:03:49;1008.8549598110334;;;12.8326171875;100
61740;BME280;47645;45.288;12.038;2023-05-11T15:13:50;1008.9456244528388;;;12.86328125;100
61740;BME280;47645;45.288;12.038;2023-05-11T15:23:51;1008.9762128052483;;;12.8173828125;100
61740;BME280;47645;45.288;12.038;2023-05-11T15:33:52;1008.8390529845387;;;12.5982421875;100
61740;BME280;47645;45.288;12.038;2023-05-11T15:43:53;1008.939708669931;;;12.5982421875;100
61740;BME280;47645;45.288;12.038;2023-05-11T15:53:54;1009.0006255894352;;;12.674609375;100
61740;BME280;47645;45.288;12.038;2023-05-11T16:03:56;1009.0691700745274;;;12.6083984375;100
61740;BME280;47645;45.288;12.038;2023-05-11T16:13:56;1009.0988520894582;;;12.7205078125;100
61740;BME280;47645;45.288;12.038;2023-05-11T16:23:59;1009.1931259610744;;;12.6236328125;100
61740;BME280;47645;45.288;12.038;2023-05-11T16:33:58;1009.2355270598441;;;12.9396484375;100
61740;BME280;47645;45.288;12.038;2023-05-11T16:43:59;1009.3244704161351;;;13.05703125;100
61740;BME280;47645;45.288;12.038;2023-05-11T16:53:59;1009.3569415505533;;;12.8275390625;100
61740;BME280;47645;45.288;12.038;2023-05-11T17:04:00;1009.2234928954501;;;13.0466796875;100
61740;BME280;47645;45.288;12.038;2023-05-11T17:14:02;1009.199657886292;;;12.8939453125;100
61740;BME280;47645;45.288;12.038;2023-05-11T17:24:03;1009.1222557870693;;;12.9091796875;100
61740;BME280;47645;45.288;12.038;2023-05-11T17:34:03;1009.0956867393819;;;12.8224609375;100
61740;BME280;47645;45.288;12.038;2023-05-11T17:44:04;1009.1330636317554;;;13.07734375;100
61740;BME280;47645;45.288;12.038;2023-05-11T17:54:05;1009.1971822532166;;;13.05703125;100
61740;BME280;47645;45.288;12.038;2023-05-11T18:04:06;1009.262867005203;;;13.07734375;100
61740;BME280;47645;45.288;12.038;2023-05-11T18:14:07;1009.3585300860511;;;12.9396484375;100
61740;BME280;47645;45.288;12.038;2023-05-11T18:24:09;1009.4246859894978;;;13.0111328125;100
61740;BME280;47645;45.288;12.038;2023-05-11T18:34:08;1009.5119359377522;;;13.0162109375;100
61740;BME280;47645;45.288;12.038;2023-05-11T18:44:09;1009.6010446701845;;;12.9244140625;100
61740;BME280;47645;45.288;12.038;2023-05-11T18:54:10;1009.6579136175162;;;12.9091796875;100
61740;BME280;47645;45.288;12.038;2023-05-11T19:04:11;1009.7092037668742;;;12.8734375;100
61740;BME280;47645;45.288;12.038;2023-05-11T19:14:14;1009.7036893092445;;;12.858203125;100
61740;BME280;47645;45.288;12.038;2023-05-11T19:24:13;1009.8342166830305;;;12.9041015625;100
61740;BME280;47645;45.288;12.038;2023-05-11T19:34:14;1009.9442725402071;;;12.9396484375;100
61740;BME280;47645;45.288;12.038;2023-05-11T19:44:15;1010.0124551723363;;;12.8123046875;100
61740;BME280;47645;45.288;12.038;2023-05-11T19:54:15;1010.1020051008362;;;12.771484375;100
61740;BME280;47645;45.288;12.038;2023-05-11T20:04:16;1010.1780639867633;;;12.84296875;100
61740;BME280;47645;45.288;12.038;2023-05-11T20:14:17;1010.2439183129446;;;12.75625;100
61740;BME280;47645;45.288;12.038;2023-05-11T20:24:18;1010.2769965071591;;;12.5115234375;100
61740;BME280;47645;45.288;12.038;2023-05-11T20:34:19;1010.3276976822516;;;12.6236328125;100
61740;BME280;47645;45.288;12.038;2023-05-11T20:44:19;1010.3271647741645;;;12.75625;100
61740;BME280;47645;45.288;12.038;2023-05-11T20:54:22;1010.3156951108097;;;12.7970703125;100
61740;BME280;47645;45.288;12.038;2023-05-11T21:04:22;1010.3720424170975;;;12.557421875;100
61740;BME280;47645;45.288;12.038;2023-05-11T21:14:22;1010.3570315624114;;;12.62890625;100
61740;BME280;47645;45.288;12.038;2023-05-11T21:24:23;1010.2733593324988;;;12.6236328125;100
61740;BME280;47645;45.288;12.038;2023-05-11T21:34:24;1010.2410680831094;;;12.62890625;100
61740;BME280;47645;45.288;12.038;2023-05-11T21:44:25;1010.2656081532533;;;12.62890625;100
61740;BME280;47645;45.288;12.038;2023-05-11T21:54:26;1010.3441196572976;;;12.741015625;100
61740;BME280;47645;45.288;12.038;2023-05-11T22:04:27;1010.3879617621196;;;12.659375;100
61740;BME280;47645;45.288;12.038;2023-05-11T22:14:29;1010.4259164054098;;;12.5779296875;100
61740;BME280;47645;45.288;12.038;2023-05-11T22:24:29;1010.4706266167223;;;12.674609375;100
61740;BME280;47645;45.288;12.038;2023-05-11T22:34:30;1010.505602501403;;;12.995703125;100
61740;BME280;47645;45.288;12.038;2023-05-11T22:44:30;1010.5773267663833;;;13.17421875;100
61740;BME280;47645;45.288;12.038;2023-05-11T22:54:31;1010.6371009257554;;;13.510546875;100
61740;BME280;47645;45.288;12.038;2023-05-11T23:04:32;1010.603953392038;;;13.40859375;100
61740;BME280;47645;45.288;12.038;2023-05-11T23:14:32;1010.6487801846222;;;13.373046875;100
61740;BME280;47645;45.288;12.038;2023-05-11T23:24:33;1010.7541345242789;;;13.393359375;100
61740;BME280;47645;45.288;12.038;2023-05-11T23:34:34;1010.7052924335516;;;13.60234375;100
61740;BME280;47645;45.288;12.038;2023-05-11T23:44:35;1010.5859534517787;;;13.50546875;100
61740;BME280;47645;45.288;12.038;2023-05-11T23:54:36;1010.5999819182983;;;13.627734375;100
